sensor_id;sensor_type;location;lat;lon;timestamp;pressure;altitude;pressure_sealevel;temperature;humidity
41040;BME280;48586;50.122;18.972;2023-12-07T00:00:23;98545.38;;;-3.00;55.43
41040;BME280;48586;50.122;18.972;2023-12-07T00:03:29;98547.91;;;-2.99;55.58
41040;BME280;48586;50.122;18.972;2023-12-07T00:06:39;98554.00;;;-2.98;55.92
41040;BME280;48586;50.122;18.972;2023-12-07T00:09:44;98547.03;;;-2.98;55.54
41040;BME280;48586;50.122;18.972;2023-12-07T00:12:51;98551.22;;;-2.93;55.74
41040;BME280;48586;50.122;18.972;2023-12-07T00:15:57;98554.56;;;-2.90;55.66
41040;BME280;48586;50.122;18.972;2023-12-07T00:19:03;98553.69;;;-2.90;55.75
41040;BME280;48586;50.122;18.972;2023-12-07T00:22:11;98550.97;;;-2.87;55.51
41040;BME280;48586;50.122;18.972;2023-12-07T00:25:18;98545.66;;;-2.86;55.56
41040;BME280;48586;50.122;18.972;2023-12-07T00:28:24;98556.84;;;-2.82;55.54
41040;BME280;48586;50.122;18.972;2023-12-07T00:31:31;98554.09;;;-2.79;55.33
41040;BME280;48586;50.122;18.972;2023-12-07T00:34:37;98557.41;;;-2.74;55.43
41040;BME280;48586;50.122;18.972;2023-12-07T00:37:46;98551.16;;;-2.72;55.27
41040;BME280;48586;50.122;18.972;2023-12-07T00:40:54;98555.41;;;-2.69;55.22
41040;BME280;48586;50.122;18.972;2023-12-07T00:44:00;98545.13;;;-2.74;55.27
41040;BME280;48586;50.122;18.972;2023-12-07T00:47:06;98561.56;;;-2.70;55.29
41040;BME280;48586;50.122;18.972;2023-12-07T00:50:13;98557.13;;;-2.68;55.16
41040;BME280;48586;50.122;18.972;2023-12-07T00:53:21;98560.59;;;-2.68;55.01
41040;BME280;48586;50.122;18.972;2023-12-07T00:56:28;98562.28;;;-2.67;54.78
41040;BME280;48586;50.122;18.972;2023-12-07T00:59:33;98557.97;;;-2.68;55.04
41040;BME280;48586;50.122;18.972;2023-12-07T01:02:40;98564.13;;;-2.69;54.93
41040;BME280;48586;50.122;18.972;2023-12-07T01:05:45;98563.28;;;-2.69;54.75
41040;BME280;48586;50.122;18.972;2023-12-07T01:08:54;98557.25;;;-2.71;55.05
41040;BME280;48586;50.122;18.972;2023-12-07T01:11:59;98561.56;;;-2.70;55.11
41040;BME280;48586;50.122;18.972;2023-12-07T01:15:06;98562.25;;;-2.65;55.27
41040;BME280;48586;50.122;18.972;2023-12-07T01:18:17;98565.66;;;-2.63;55.00
41040;BME280;48586;50.122;18.972;2023-12-07T01:21:23;98567.53;;;-2.67;54.94
41040;BME280;48586;50.122;18.972;2023-12-07T01:24:31;98571.88;;;-2.65;54.91
41040;BME280;48586;50.122;18.972;2023-12-07T01:27:37;98568.34;;;-2.64;54.53
41040;BME280;48586;50.122;18.972;2023-12-07T01:30:43;98569.13;;;-2.62;55.05
41040;BME280;48586;50.122;18.972;2023-12-07T01:33:52;98575.34;;;-2.65;54.72
41040;BME280;48586;50.122;18.972;2023-12-07T01:36:58;98569.25;;;-2.65;54.97
41040;BME280;48586;50.122;18.972;2023-12-07T01:40:07;98569.19;;;-2.64;54.75
41040;BME280;48586;50.122;18.972;2023-12-07T01:43:14;98572.59;;;-2.62;54.96
41040;BME280;48586;50.122;18.972;2023-12-07T01:46:20;98568.19;;;-2.61;54.31
41040;BME280;48586;50.122;18.972;2023-12-07T01:49:27;98566.34;;;-2.59;54.87
41040;BME280;48586;50.122;18.972;2023-12-07T01:52:38;98571.66;;;-2.61;54.84
41040;BME280;48586;50.122;18.972;2023-12-07T01:55:53;98569.97;;;-2.62;54.83
41040;BME280;48586;50.122;18.972;2023-12-07T01:59:01;98576.06;;;-2.61;54.90
41040;BME280;48586;50.122;18.972;2023-12-07T02:02:07;98571.06;;;-2.68;55.12
41040;BME280;48586;50.122;18.972;2023-12-07T02:05:13;98572.72;;;-2.65;55.39
41040;BME280;48586;50.122;18.972;2023-12-07T02:08:18;98579.59;;;-2.62;55.60
41040;BME280;48586;50.122;18.972;2023-12-07T02:11:27;98581.09;;;-2.57;55.01
41040;BME280;48586;50.122;18.972;2023-12-07T02:14:32;98579.31;;;-2.56;54.94
41040;BME280;48586;50.122;18.972;2023-12-07T02:17:49;98582.03;;;-2.58;55.15
41040;BME280;48586;50.122;18.972;2023-12-07T02:21:14;98586.31;;;-2.55;55.26
41040;BME280;48586;50.122;18.972;2023-12-07T02:24:28;98586.22;;;-2.54;55.26
41040;BME280;48586;50.122;18.972;2023-12-07T02:27:43;98584.53;;;-2.55;55.00
41040;BME280;48586;50.122;18.972;2023-12-07T02:30:51;98582.22;;;-2.62;55.18
41040;BME280;48586;50.122;18.972;2023-12-07T02:33:55;98599.06;;;-2.68;55.31
41040;BME280;48586;50.122;18.972;2023-12-07T02:37:04;98592.44;;;-2.77;55.29
41040;BME280;48586;50.122;18.972;2023-12-07T02:40:13;98589.59;;;-2.92;55.72
41040;BME280;48586;50.122;18.972;2023-12-07T02:43:26;98599.53;;;-3.01;56.46
41040;BME280;48586;50.122;18.972;2023-12-07T02:46:33;98608.44;;;-3.05;56.74
41040;BME280;48586;50.122;18.972;2023-12-07T02:49:39;98614.59;;;-3.06;56.45
41040;BME280;48586;50.122;18.972;2023-12-07T02:52:45;98610.22;;;-3.05;56.48
41040;BME280;48586;50.122;18.972;2023-12-07T02:55:53;98611.00;;;-3.03;56.63
41040;BME280;48586;50.122;18.972;2023-12-07T02:59:02;98624.09;;;-3.03;56.31
41040;BME280;48586;50.122;18.972;2023-12-07T03:02:08;98609.16;;;-3.01;56.82
41040;BME280;48586;50.122;18.972;2023-12-07T03:05:12;98613.41;;;-2.99;56.92
41040;BME280;48586;50.122;18.972;2023-12-07T03:08:18;98614.16;;;-2.95;56.63
41040;BME280;48586;50.122;18.972;2023-12-07T03:11:24;98613.03;;;-2.89;56.21
41040;BME280;48586;50.122;18.972;2023-12-07T03:14:32;98610.19;;;-2.83;56.26
41040;BME280;48586;50.122;18.972;2023-12-07T03:17:36;98613.41;;;-2.77;56.38
41040;BME280;48586;50.122;18.972;2023-12-07T03:20:42;98604.50;;;-2.73;56.45
41040;BME280;48586;50.122;18.972;2023-12-07T03:23:47;98609.53;;;-2.68;56.21
41040;BME280;48586;50.122;18.972;2023-12-07T03:26:52;98604.19;;;-2.65;56.04
41040;BME280;48586;50.122;18.972;2023-12-07T03:29:59;98605.22;;;-2.69;55.29
41040;BME280;48586;50.122;18.972;2023-12-07T03:33:05;98610.81;;;-2.77;55.39
41040;BME280;48586;50.122;18.972;2023-12-07T03:36:11;98617.00;;;-2.79;55.72
41040;BME280;48586;50.122;18.972;2023-12-07T03:39:17;98610.13;;;-2.82;55.84
41040;BME280;48586;50.122;18.972;2023-12-07T03:42:24;98621.31;;;-2.78;55.89
41040;BME280;48586;50.122;18.972;2023-12-07T03:45:31;98618.66;;;-2.77;56.08
41040;BME280;48586;50.122;18.972;2023-12-07T03:48:36;98625.53;;;-2.74;55.73
41040;BME280;48586;50.122;18.972;2023-12-07T03:51:41;98621.00;;;-2.71;55.67
41040;BME280;48586;50.122;18.972;2023-12-07T03:54:46;98625.19;;;-2.67;55.66
41040;BME280;48586;50.122;18.972;2023-12-07T03:57:51;98623.38;;;-2.64;55.62
41040;BME280;48586;50.122;18.972;2023-12-07T04:00:58;98634.59;;;-2.61;55.71
41040;BME280;48586;50.122;18.972;2023-12-07T04:04:03;98642.44;;;-2.61;55.50
41040;BME280;48586;50.122;18.972;2023-12-07T04:07:09;98646.91;;;-2.63;55.27
41040;BME280;48586;50.122;18.972;2023-12-07T04:10:13;98633.03;;;-2.65;55.39
41040;BME280;48586;50.122;18.972;2023-12-07T04:13:19;98638.31;;;-2.67;55.23
41040;BME280;48586;50.122;18.972;2023-12-07T04:16:26;98644.72;;;-2.74;55.22
41040;BME280;48586;50.122;18.972;2023-12-07T04:19:31;98644.97;;;-2.80;55.73
41040;BME280;48586;50.122;18.972;2023-12-07T04:22:36;98645.16;;;-2.84;55.78
41040;BME280;48586;50.122;18.972;2023-12-07T04:25:41;98634.81;;;-2.87;55.75
41040;BME280;48586;50.122;18.972;2023-12-07T04:28:45;98634.69;;;-2.84;56.07
41040;BME280;48586;50.122;18.972;2023-12-07T04:31:53;98632.63;;;-2.76;56.00
41040;BME280;48586;50.122;18.972;2023-12-07T04:34:58;98642.13;;;-2.74;55.88
41040;BME280;48586;50.122;18.972;2023-12-07T04:38:03;98638.72;;;-2.76;55.77
41040;BME280;48586;50.122;18.972;2023-12-07T04:41:07;98643.09;;;-2.76;55.79
41040;BME280;48586;50.122;18.972;2023-12-07T04:44:13;98650.16;;;-2.78;55.74
41040;BME280;48586;50.122;18.972;2023-12-07T04:47:20;98657.91;;;-2.75;55.84
41040;BME280;48586;50.122;18.972;2023-12-07T04:50:26;98665.75;;;-2.75;56.00
41040;BME280;48586;50.122;18.972;2023-12-07T04:53:30;98672.81;;;-2.77;55.99
41040;BME280;48586;50.122;18.972;2023-12-07T04:56:36;98666.72;;;-2.78;55.95
41040;BME280;48586;50.122;18.972;2023-12-07T04:59:42;98670.31;;;-2.80;55.91
41040;BME280;48586;50.122;18.972;2023-12-07T05:02:52;98666.25;;;-2.87;56.36
41040;BME280;48586;50.122;18.972;2023-12-07T05:05:58;98677.69;;;-2.90;56.46
41040;BME280;48586;50.122;18.972;2023-12-07T05:09:03;98678.63;;;-2.91;56.69
41040;BME280;48586;50.122;18.972;2023-12-07T05:12:11;98689.88;;;-2.89;56.71
41040;BME280;48586;50.122;18.972;2023-12-07T05:15:17;98691.84;;;-2.94;56.53
41040;BME280;48586;50.122;18.972;2023-12-07T05:18:24;98693.63;;;-2.94;56.45
41040;BME280;48586;50.122;18.972;2023-12-07T05:21:29;98700.84;;;-3.01;56.94
41040;BME280;48586;50.122;18.972;2023-12-07T05:24:35;98701.09;;;-3.07;57.14
41040;BME280;48586;50.122;18.972;2023-12-07T05:27:40;98709.56;;;-3.01;56.84
41040;BME280;48586;50.122;18.972;2023-12-07T05:30:45;98708.97;;;-3.07;56.78
41040;BME280;48586;50.122;18.972;2023-12-07T05:33:53;98705.59;;;-3.11;57.06
41040;BME280;48586;50.122;18.972;2023-12-07T05:36:59;98711.63;;;-3.09;57.56
41040;BME280;48586;50.122;18.972;2023-12-07T05:40:07;98714.81;;;-3.01;57.61
41040;BME280;48586;50.122;18.972;2023-12-07T05:43:13;98713.78;;;-2.97;57.47
41040;BME280;48586;50.122;18.972;2023-12-07T05:46:18;98714.50;;;-2.93;57.20
41040;BME280;48586;50.122;18.972;2023-12-07T05:49:26;98719.75;;;-2.93;57.34
41040;BME280;48586;50.122;18.972;2023-12-07T05:52:33;98727.63;;;-2.93;57.50
41040;BME280;48586;50.122;18.972;2023-12-07T05:55:39;98727.41;;;-2.88;57.30
41040;BME280;48586;50.122;18.972;2023-12-07T05:58:46;98725.63;;;-2.86;57.39
41040;BME280;48586;50.122;18.972;2023-12-07T06:01:52;98731.78;;;-2.87;57.36
41040;BME280;48586;50.122;18.972;2023-12-07T06:05:01;98725.72;;;-2.89;57.28
41040;BME280;48586;50.122;18.972;2023-12-07T06:08:07;98734.75;;;-2.97;57.53
41040;BME280;48586;50.122;18.972;2023-12-07T06:11:13;98734.69;;;-2.95;57.88
41040;BME280;48586;50.122;18.972;2023-12-07T06:14:18;98748.78;;;-2.99;57.70
41040;BME280;48586;50.122;18.972;2023-12-07T06:17:25;98752.28;;;-2.99;58.04
41040;BME280;48586;50.122;18.972;2023-12-07T06:20:32;98746.94;;;-2.95;58.08
41040;BME280;48586;50.122;18.972;2023-12-07T06:23:38;98752.03;;;-2.92;57.91
41040;BME280;48586;50.122;18.972;2023-12-07T06:26:43;98757.41;;;-2.95;57.83
41040;BME280;48586;50.122;18.972;2023-12-07T06:29:50;98766.78;;;-2.90;57.96
41040;BME280;48586;50.122;18.972;2023-12-07T06:32:55;98766.72;;;-2.88;57.94
41040;BME280;48586;50.122;18.972;2023-12-07T06:36:05;98765.66;;;-2.83;57.59
41040;BME280;48586;50.122;18.972;2023-12-07T06:39:11;98767.34;;;-2.82;57.35
41040;BME280;48586;50.122;18.972;2023-12-07T06:42:18;98770.75;;;-2.80;57.40
41040;BME280;48586;50.122;18.972;2023-12-07T06:45:23;98771.53;;;-2.76;57.28
41040;BME280;48586;50.122;18.972;2023-12-07T06:48:29;98774.94;;;-2.74;57.20
41040;BME280;48586;50.122;18.972;2023-12-07T06:51:40;98776.63;;;-2.73;57.14
41040;BME280;48586;50.122;18.972;2023-12-07T06:54:46;98766.31;;;-2.78;56.83
41040;BME280;48586;50.122;18.972;2023-12-07T06:57:52;98777.28;;;-2.68;57.44
41040;BME280;48586;50.122;18.972;2023-12-07T07:00:59;98775.16;;;-2.58;57.07
41040;BME280;48586;50.122;18.972;2023-12-07T07:04:04;98783.66;;;-2.52;57.35
41040;BME280;48586;50.122;18.972;2023-12-07T07:07:14;98779.81;;;-2.43;56.59
41040;BME280;48586;50.122;18.972;2023-12-07T07:10:20;98784.88;;;-2.39;56.13
41040;BME280;48586;50.122;18.972;2023-12-07T07:13:27;98791.09;;;-2.41;56.33
41040;BME280;48586;50.122;18.972;2023-12-07T07:16:32;98790.19;;;-2.40;56.26
41040;BME280;48586;50.122;18.972;2023-12-07T07:19:38;98788.28;;;-2.36;56.37
41040;BME280;48586;50.122;18.972;2023-12-07T07:22:45;98797.75;;;-2.32;56.15
41040;BME280;48586;50.122;18.972;2023-12-07T07:25:52;98806.41;;;-2.30;56.20
41040;BME280;48586;50.122;18.972;2023-12-07T07:28:58;98803.56;;;-2.26;55.88
41040;BME280;48586;50.122;18.972;2023-12-07T07:32:06;98802.84;;;-2.29;55.78
41040;BME280;48586;50.122;18.972;2023-12-07T07:35:13;98800.31;;;-2.31;56.23
41040;BME280;48586;50.122;18.972;2023-12-07T07:38:22;98803.94;;;-2.35;55.91
41040;BME280;48586;50.122;18.972;2023-12-07T07:41:27;98814.41;;;-2.33;56.31
41040;BME280;48586;50.122;18.972;2023-12-07T07:44:33;98812.63;;;-2.33;56.13
41040;BME280;48586;50.122;18.972;2023-12-07T07:47:40;98816.03;;;-2.31;56.22
41040;BME280;48586;50.122;18.972;2023-12-07T07:50:47;98819.44;;;-2.29;55.84
41040;BME280;48586;50.122;18.972;2023-12-07T07:53:55;98814.28;;;-2.30;55.97
41040;BME280;48586;50.122;18.972;2023-12-07T07:57:02;98811.50;;;-2.27;55.98
41040;BME280;48586;50.122;18.972;2023-12-07T08:00:08;98819.31;;;-2.26;56.09
41040;BME280;48586;50.122;18.972;2023-12-07T08:03:15;98820.09;;;-2.24;55.73
41040;BME280;48586;50.122;18.972;2023-12-07T08:06:20;98815.84;;;-2.26;55.80
41040;BME280;48586;50.122;18.972;2023-12-07T08:09:29;98824.69;;;-2.29;55.77
41040;BME280;48586;50.122;18.972;2023-12-07T08:12:34;98808.09;;;-2.29;56.56
41040;BME280;48586;50.122;18.972;2023-12-07T08:15:40;98812.84;;;-2.17;56.33
41040;BME280;48586;50.122;18.972;2023-12-07T08:18:45;98816.03;;;-2.09;55.64
41040;BME280;48586;50.122;18.972;2023-12-07T08:21:51;98824.06;;;-2.14;55.83
41040;BME280;48586;50.122;18.972;2023-12-07T08:24:58;98823.19;;;-2.13;56.09
41040;BME280;48586;50.122;18.972;2023-12-07T08:28:07;98834.25;;;-2.06;55.87
41040;BME280;48586;50.122;18.972;2023-12-07T08:31:12;98838.78;;;-2.10;55.48
41040;BME280;48586;50.122;18.972;2023-12-07T08:34:18;98838.16;;;-2.16;55.75
41040;BME280;48586;50.122;18.972;2023-12-07T08:37:23;98840.56;;;-2.10;55.63
41040;BME280;48586;50.122;18.972;2023-12-07T08:40:32;98843.34;;;-2.15;55.67
41040;BME280;48586;50.122;18.972;2023-12-07T08:43:36;98843.47;;;-2.18;55.55
41040;BME280;48586;50.122;18.972;2023-12-07T08:46:42;98843.63;;;-2.21;55.85
41040;BME280;48586;50.122;18.972;2023-12-07T08:49:48;98846.25;;;-2.21;56.08
41040;BME280;48586;50.122;18.972;2023-12-07T08:52:55;98858.38;;;-2.18;56.14
41040;BME280;48586;50.122;18.972;2023-12-07T08:56:04;98852.34;;;-2.20;55.78
41040;BME280;48586;50.122;18.972;2023-12-07T08:59:10;98859.41;;;-2.22;56.06
41040;BME280;48586;50.122;18.972;2023-12-07T09:02:15;98863.00;;;-2.25;55.93
41040;BME280;48586;50.122;18.972;2023-12-07T09:05:22;98868.38;;;-2.28;56.20
41040;BME280;48586;50.122;18.972;2023-12-07T09:08:28;98869.56;;;-2.36;56.96
41040;BME280;48586;50.122;18.972;2023-12-07T09:11:36;98875.88;;;-2.41;56.95
41040;BME280;48586;50.122;18.972;2023-12-07T09:14:41;98881.47;;;-2.50;57.14
41040;BME280;48586;50.122;18.972;2023-12-07T09:17:47;98875.56;;;-2.55;57.52
41040;BME280;48586;50.122;18.972;2023-12-07T09:20:53;98879.03;;;-2.54;57.64
41040;BME280;48586;50.122;18.972;2023-12-07T09:24:00;98871.19;;;-2.56;58.22
41040;BME280;48586;50.122;18.972;2023-12-07T09:27:07;98873.88;;;-2.57;57.85
41040;BME280;48586;50.122;18.972;2023-12-07T09:30:15;98867.91;;;-2.61;58.10
41040;BME280;48586;50.122;18.972;2023-12-07T09:33:21;98870.34;;;-2.56;58.55
41040;BME280;48586;50.122;18.972;2023-12-07T09:36:28;98866.00;;;-2.57;58.26
41040;BME280;48586;50.122;18.972;2023-12-07T09:39:33;98871.19;;;-2.56;58.48
41040;BME280;48586;50.122;18.972;2023-12-07T09:42:42;98871.94;;;-2.52;58.23
41040;BME280;48586;50.122;18.972;2023-12-07T09:45:48;98874.84;;;-2.60;57.96
41040;BME280;48586;50.122;18.972;2023-12-07T09:48:59;98869.63;;;-2.60;58.70
41040;BME280;48586;50.122;18.972;2023-12-07T09:52:06;98869.50;;;-2.57;58.47
41040;BME280;48586;50.122;18.972;2023-12-07T09:55:17;98861.41;;;-2.51;58.38
41040;BME280;48586;50.122;18.972;2023-12-07T09:58:27;98862.19;;;-2.49;58.50
41040;BME280;48586;50.122;18.972;2023-12-07T10:01:34;98865.72;;;-2.50;58.14
41040;BME280;48586;50.122;18.972;2023-12-07T10:04:41;98870.13;;;-2.50;58.37
41040;BME280;48586;50.122;18.972;2023-12-07T10:07:49;98864.81;;;-2.49;57.68
41040;BME280;48586;50.122;18.972;2023-12-07T10:11:06;98860.03;;;-2.61;58.04
41040;BME280;48586;50.122;18.972;2023-12-07T10:14:18;98857.53;;;-2.64;58.32
41040;BME280;48586;50.122;18.972;2023-12-07T10:17:45;98861.75;;;-2.60;58.60
41040;BME280;48586;50.122;18.972;2023-12-07T10:20:53;98862.47;;;-2.56;58.58
41040;BME280;48586;50.122;18.972;2023-12-07T10:23:58;98855.25;;;-2.50;58.78
41040;BME280;48586;50.122;18.972;2023-12-07T10:27:05;98854.19;;;-2.46;58.19
41040;BME280;48586;50.122;18.972;2023-12-07T10:30:14;98858.66;;;-2.48;58.14
41040;BME280;48586;50.122;18.972;2023-12-07T10:33:27;98861.41;;;-2.51;58.17
41040;BME280;48586;50.122;18.972;2023-12-07T10:36:33;98849.06;;;-2.49;58.83
41040;BME280;48586;50.122;18.972;2023-12-07T10:39:39;98858.22;;;-2.37;58.32
41040;BME280;48586;50.122;18.972;2023-12-07T10:42:48;98849.34;;;-2.33;58.25
41040;BME280;48586;50.122;18.972;2023-12-07T10:45:57;98845.69;;;-2.29;57.97
41040;BME280;48586;50.122;18.972;2023-12-07T10:49:15;98849.09;;;-2.27;58.07
41040;BME280;48586;50.122;18.972;2023-12-07T10:52:24;98847.94;;;-2.20;58.11
41040;BME280;48586;50.122;18.972;2023-12-07T10:55:41;98841.66;;;-2.16;57.72
41040;BME280;48586;50.122;18.972;2023-12-07T10:58:55;98846.78;;;-2.13;57.38
41040;BME280;48586;50.122;18.972;2023-12-07T11:02:07;98852.81;;;-2.11;57.59
41040;BME280;48586;50.122;18.972;2023-12-07T11:05:17;98854.47;;;-2.08;57.25
41040;BME280;48586;50.122;18.972;2023-12-07T11:08:31;98851.06;;;-2.10;57.19
41040;BME280;48586;50.122;18.972;2023-12-07T11:11:46;98852.88;;;-2.12;57.18
41040;BME280;48586;50.122;18.972;2023-12-07T11:14:55;98850.28;;;-2.12;57.22
41040;BME280;48586;50.122;18.972;2023-12-07T11:18:06;98852.06;;;-2.14;57.37
41040;BME280;48586;50.122;18.972;2023-12-07T11:21:14;98850.19;;;-2.11;57.15
41040;BME280;48586;50.122;18.972;2023-12-07T11:24:23;98855.69;;;-2.17;57.09
41040;BME280;48586;50.122;18.972;2023-12-07T11:27:29;98855.81;;;-2.20;57.59
41040;BME280;48586;50.122;18.972;2023-12-07T11:30:40;98859.16;;;-2.16;57.70
41040;BME280;48586;50.122;18.972;2023-12-07T11:33:51;98859.34;;;-2.21;57.45
41040;BME280;48586;50.122;18.972;2023-12-07T11:36:57;98862.69;;;-2.17;57.74
41040;BME280;48586;50.122;18.972;2023-12-07T11:40:04;98862.47;;;-2.11;57.77
41040;BME280;48586;50.122;18.972;2023-12-07T11:43:17;98849.78;;;-2.00;57.37
41040;BME280;48586;50.122;18.972;2023-12-07T11:46:36;98848.47;;;-1.90;58.52
41040;BME280;48586;50.122;18.972;2023-12-07T11:49:46;98856.00;;;-1.82;57.22
41040;BME280;48586;50.122;18.972;2023-12-07T11:52:52;98853.22;;;-1.77;56.93
41040;BME280;48586;50.122;18.972;2023-12-07T11:56:01;98858.25;;;-1.73;56.66
41040;BME280;48586;50.122;18.972;2023-12-07T11:59:08;98857.31;;;-1.70;56.08
41040;BME280;48586;50.122;18.972;2023-12-07T12:02:15;98849.94;;;-1.62;56.54
41040;BME280;48586;50.122;18.972;2023-12-07T12:05:24;98840.63;;;-1.49;56.41
41040;BME280;48586;50.122;18.972;2023-12-07T12:08:32;98835.72;;;-1.36;56.05
41040;BME280;48586;50.122;18.972;2023-12-07T12:11:38;98837.19;;;-1.31;55.91
41040;BME280;48586;50.122;18.972;2023-12-07T12:14:52;98839.56;;;-1.25;55.36
41040;BME280;48586;50.122;18.972;2023-12-07T12:17:58;98851.50;;;-1.17;55.87
41040;BME280;48586;50.122;18.972;2023-12-07T12:21:09;98843.34;;;-1.11;55.26
41040;BME280;48586;50.122;18.972;2023-12-07T12:24:16;98839.09;;;-1.14;55.07
41040;BME280;48586;50.122;18.972;2023-12-07T12:27:23;98841.50;;;-1.09;54.70
41040;BME280;48586;50.122;18.972;2023-12-07T12:30:31;98845.84;;;-1.08;55.04
41040;BME280;48586;50.122;18.972;2023-12-07T12:33:37;98846.75;;;-1.09;54.23
41040;BME280;48586;50.122;18.972;2023-12-07T12:36:45;98841.66;;;-1.12;54.24
41040;BME280;48586;50.122;18.972;2023-12-07T12:39:53;98853.09;;;-1.13;54.65
41040;BME280;48586;50.122;18.972;2023-12-07T12:42:58;98843.50;;;-1.14;54.54
41040;BME280;48586;50.122;18.972;2023-12-07T12:46:08;98849.78;;;-1.18;54.37
41040;BME280;48586;50.122;18.972;2023-12-07T12:49:15;98850.59;;;-1.16;54.71
41040;BME280;48586;50.122;18.972;2023-12-07T12:52:25;98857.81;;;-1.22;54.50
41040;BME280;48586;50.122;18.972;2023-12-07T12:55:32;98859.66;;;-1.24;54.19
41040;BME280;48586;50.122;18.972;2023-12-07T12:58:39;98865.16;;;-1.30;54.42
41040;BME280;48586;50.122;18.972;2023-12-07T13:01:45;98865.16;;;-1.30;54.52
41040;BME280;48586;50.122;18.972;2023-12-07T13:04:52;98874.19;;;-1.35;55.10
41040;BME280;48586;50.122;18.972;2023-12-07T13:08:01;98863.75;;;-1.37;55.07
41040;BME280;48586;50.122;18.972;2023-12-07T13:11:07;98860.28;;;-1.37;55.51
41040;BME280;48586;50.122;18.972;2023-12-07T13:14:13;98869.50;;;-1.29;54.83
41040;BME280;48586;50.122;18.972;2023-12-07T13:17:19;98865.84;;;-1.25;54.70
41040;BME280;48586;50.122;18.972;2023-12-07T13:20:26;98866.75;;;-1.26;54.46
41040;BME280;48586;50.122;18.972;2023-12-07T13:23:35;98867.78;;;-1.30;54.87
41040;BME280;48586;50.122;18.972;2023-12-07T13:26:41;98873.19;;;-1.33;55.07
41040;BME280;48586;50.122;18.972;2023-12-07T13:29:47;98866.47;;;-1.40;55.01
41040;BME280;48586;50.122;18.972;2023-12-07T13:32:53;98867.53;;;-1.44;55.02
41040;BME280;48586;50.122;18.972;2023-12-07T13:35:59;98872.09;;;-1.47;55.39
41040;BME280;48586;50.122;18.972;2023-12-07T13:39:07;98881.84;;;-1.51;55.43
41040;BME280;48586;50.122;18.972;2023-12-07T13:42:16;98876.72;;;-1.54;55.77
41040;BME280;48586;50.122;18.972;2023-12-07T13:45:22;98884.41;;;-1.49;55.90
41040;BME280;48586;50.122;18.972;2023-12-07T13:48:29;98891.31;;;-1.47;55.46
41040;BME280;48586;50.122;18.972;2023-12-07T13:51:35;98891.41;;;-1.48;55.41
41040;BME280;48586;50.122;18.972;2023-12-07T13:54:44;98896.75;;;-1.52;55.28
41040;BME280;48586;50.122;18.972;2023-12-07T13:57:50;98890.66;;;-1.52;55.31
41040;BME280;48586;50.122;18.972;2023-12-07T14:00:58;98894.97;;;-1.51;55.44
41040;BME280;48586;50.122;18.972;2023-12-07T14:04:02;98898.34;;;-1.47;55.56
41040;BME280;48586;50.122;18.972;2023-12-07T14:07:09;98907.66;;;-1.40;55.38
41040;BME280;48586;50.122;18.972;2023-12-07T14:10:17;98913.97;;;-1.44;55.18
41040;BME280;48586;50.122;18.972;2023-12-07T14:13:22;98912.28;;;-1.45;55.33
41040;BME280;48586;50.122;18.972;2023-12-07T14:16:27;98913.38;;;-1.51;55.60
41040;BME280;48586;50.122;18.972;2023-12-07T14:19:33;98919.19;;;-1.65;55.87
41040;BME280;48586;50.122;18.972;2023-12-07T14:22:39;98917.00;;;-1.75;56.22
41040;BME280;48586;50.122;18.972;2023-12-07T14:25:50;98920.63;;;-1.78;56.64
41040;BME280;48586;50.122;18.972;2023-12-07T14:28:59;98925.19;;;-1.83;56.69
41040;BME280;48586;50.122;18.972;2023-12-07T14:32:05;98923.41;;;-1.83;56.96
41040;BME280;48586;50.122;18.972;2023-12-07T14:35:10;98927.00;;;-1.85;56.81
41040;BME280;48586;50.122;18.972;2023-12-07T14:38:16;98932.34;;;-1.87;56.80
41040;BME280;48586;50.122;18.972;2023-12-07T14:41:23;98935.75;;;-1.85;57.25
41040;BME280;48586;50.122;18.972;2023-12-07T14:44:28;98938.25;;;-1.82;57.26
41040;BME280;48586;50.122;18.972;2023-12-07T14:47:33;98943.47;;;-1.80;57.27
41040;BME280;48586;50.122;18.972;2023-12-07T14:50:38;98939.97;;;-1.81;57.30
41040;BME280;48586;50.122;18.972;2023-12-07T14:53:44;98936.44;;;-1.79;57.15
41040;BME280;48586;50.122;18.972;2023-12-07T14:56:52;98940.56;;;-1.74;57.38
41040;BME280;48586;50.122;18.972;2023-12-07T14:59:57;98938.63;;;-1.69;57.00
41040;BME280;48586;50.122;18.972;2023-12-07T15:03:06;98944.72;;;-1.68;56.81
41040;BME280;48586;50.122;18.972;2023-12-07T15:06:10;98948.28;;;-1.69;56.92
41040;BME280;48586;50.122;18.972;2023-12-07T15:09:16;98942.09;;;-1.68;57.26
41040;BME280;48586;50.122;18.972;2023-12-07T15:12:23;98948.88;;;-1.63;57.25
41040;BME280;48586;50.122;18.972;2023-12-07T15:15:29;98956.63;;;-1.60;56.89
41040;BME280;48586;50.122;18.972;2023-12-07T15:18:34;98953.19;;;-1.62;57.14
41040;BME280;48586;50.122;18.972;2023-12-07T15:21:43;98948.78;;;-1.61;57.06
41040;BME280;48586;50.122;18.972;2023-12-07T15:24:47;98947.84;;;-1.59;57.17
41040;BME280;48586;50.122;18.972;2023-12-07T15:27:55;98957.22;;;-1.53;57.04
41040;BME280;48586;50.122;18.972;2023-12-07T15:31:00;98951.91;;;-1.52;56.72
41040;BME280;48586;50.122;18.972;2023-12-07T15:34:05;98944.03;;;-1.52;56.93
41040;BME280;48586;50.122;18.972;2023-12-07T15:37:11;98940.53;;;-1.52;56.77
41040;BME280;48586;50.122;18.972;2023-12-07T15:40:16;98944.78;;;-1.48;57.03
41040;BME280;48586;50.122;18.972;2023-12-07T15:43:24;98941.03;;;-1.42;56.48
41040;BME280;48586;50.122;18.972;2023-12-07T15:46:30;98941.09;;;-1.44;56.69
41040;BME280;48586;50.122;18.972;2023-12-07T15:49:36;98957.00;;;-1.47;56.67
41040;BME280;48586;50.122;18.972;2023-12-07T15:52:44;98952.09;;;-1.56;57.04
41040;BME280;48586;50.122;18.972;2023-12-07T15:55:50;98954.97;;;-1.62;57.21
41040;BME280;48586;50.122;18.972;2023-12-07T15:59:00;98959.56;;;-1.67;57.19
41040;BME280;48586;50.122;18.972;2023-12-07T16:02:07;98959.00;;;-1.75;57.52
41040;BME280;48586;50.122;18.972;2023-12-07T16:05:14;98954.91;;;-1.83;57.92
41040;BME280;48586;50.122;18.972;2023-12-07T16:08:20;98958.72;;;-1.90;58.22
41040;BME280;48586;50.122;18.972;2023-12-07T16:11:27;98958.88;;;-1.94;58.19
41040;BME280;48586;50.122;18.972;2023-12-07T16:14:35;98973.91;;;-1.98;58.18
41040;BME280;48586;50.122;18.972;2023-12-07T16:17:45;98977.50;;;-2.00;58.47